Terminal Aerodrome Forecast
Issued by NWS

Home | Current Version | Previous Version | Text Only | Print | Product List | Glossary On
Versions: 1 2 3 4 5 6 7 8 9 10 11 12 13 14 15 16 17 18 19 20 21 22 23 24 25 26
000
FTUS41 KBOX 202343
TAFBAF
TAF
KBAF 202343Z 2100/2124 15005KT P6SM FEW200
     FM210700 17005KT 5SM BR SCT150
     FM211200 18005KT 4SM BR BKN120
     FM211300 19012KT P6SM BKN200
     FM211800 21011G21KT P6SM FEW200
     FM212100 23012KT P6SM SCT045
     FM212300 30008KT P6SM OVC045=

USA.gov is the U.S. government's official web portal to all federal, state and local government web resources and services.